createdAt,value
2022-08-21T00:00:02.215Z,100.00
2022-08-21T00:01:20.206Z,100.00
2022-08-21T00:02:25.996Z,100.00
2022-08-21T00:03:30.559Z,100.00
2022-08-21T00:04:34.157Z,100.00
2022-08-21T00:07:08.674Z,100.00
2022-08-21T00:08:12.058Z,100.00
2022-08-21T00:09:16.912Z,100.00
2022-08-21T00:10:20.847Z,100.00
2022-08-21T00:11:25.383Z,100.00
2022-08-21T00:12:28.920Z,100.00
2022-08-21T00:13:36.265Z,100.00
2022-08-21T00:14:39.685Z,100.00
2022-08-21T00:15:45.989Z,100.00
2022-08-21T00:16:49.699Z,100.00
2022-08-21T00:17:54.344Z,100.00
2022-08-21T00:18:57.816Z,100.00
2022-08-21T00:20:02.127Z,100.00
2022-08-21T00:21:05.796Z,100.00
2022-08-21T00:22:10.463Z,100.00
2022-08-21T00:23:14.609Z,100.00
2022-08-21T00:24:18.848Z,100.00
2022-08-21T00:26:46.474Z,100.00
2022-08-21T00:27:50.163Z,100.00
2022-08-21T00:28:54.534Z,100.00
2022-08-21T00:29:58.693Z,100.00
2022-08-21T00:31:05.114Z,100.00
2022-08-21T00:32:08.333Z,100.00
2022-08-21T00:33:18.595Z,100.00
2022-08-21T00:34:22.973Z,100.00
2022-08-21T00:35:28.806Z,100.00
2022-08-21T00:36:33.232Z,100.00
2022-08-21T00:37:36.444Z,100.00
2022-08-21T00:38:40.846Z,100.00
2022-08-21T00:39:44.285Z,100.00
2022-08-21T00:40:51.507Z,100.00
2022-08-21T00:41:54.785Z,100.00
2022-08-21T00:42:59.347Z,100.00
2022-08-21T00:44:02.802Z,100.00
2022-08-21T00:45:08.486Z,100.00
2022-08-21T00:46:14.158Z,100.00
2022-08-21T00:47:18.141Z,100.00
2022-08-21T00:48:22.726Z,100.00
2022-08-21T00:49:26.085Z,100.00
2022-08-21T00:50:33.113Z,100.00
2022-08-21T00:51:39.672Z,100.00
2022-08-21T00:52:45.041Z,100.00
2022-08-21T00:53:53.407Z,100.00
2022-08-21T00:55:00.418Z,100.00
2022-08-21T00:56:07.254Z,100.00
2022-08-21T00:57:18.511Z,100.00
2022-08-21T00:58:22.274Z,100.00
2022-08-21T00:59:27.101Z,100.00
2022-08-21T01:00:34.779Z,100.00
2022-08-21T01:01:40.635Z,100.00
2022-08-21T01:02:44.021Z,100.00
2022-08-21T01:03:49.121Z,100.00
2022-08-21T01:04:53.672Z,100.00
2022-08-21T01:05:58.304Z,100.00
2022-08-21T01:07:01.884Z,100.00
2022-08-21T01:08:06.660Z,100.00
2022-08-21T01:09:10.322Z,100.00
2022-08-21T01:10:23.973Z,100.00
2022-08-21T01:11:32.854Z,100.00
2022-08-21T01:12:37.332Z,100.00
2022-08-21T01:13:47.061Z,100.00
2022-08-21T01:14:51.430Z,100.00
2022-08-21T01:15:56.714Z,100.00
2022-08-21T01:17:04.352Z,100.00
2022-08-21T01:18:11.217Z,100.00
2022-08-21T01:19:16.373Z,100.00
2022-08-21T01:20:19.574Z,100.00
2022-08-21T01:21:28.272Z,100.00
2022-08-21T01:22:32.044Z,100.00
2022-08-21T01:23:37.155Z,100.00
2022-08-21T01:24:40.641Z,100.00
2022-08-21T01:25:44.996Z,100.00
2022-08-21T01:26:48.584Z,100.00
2022-08-21T01:27:52.874Z,100.00
2022-08-21T01:28:59.033Z,100.00
2022-08-21T01:30:07.492Z,100.00
2022-08-21T01:31:12.531Z,100.00
2022-08-21T01:32:19.989Z,100.00
2022-08-21T01:33:24.373Z,100.00
2022-08-21T01:34:28.841Z,100.00
2022-08-21T01:35:32.232Z,100.00
2022-08-21T01:36:38.103Z,100.00
2022-08-21T01:37:41.576Z,100.00
2022-08-21T01:38:45.988Z,100.00
2022-08-21T01:39:50.253Z,100.00
2022-08-21T01:40:54.612Z,100.00
2022-08-21T01:42:01.079Z,100.00
2022-08-21T01:43:05.709Z,100.00
2022-08-21T01:44:09.205Z,100.00
2022-08-21T01:45:14.791Z,100.00
2022-08-21T01:46:18.303Z,100.00
2022-08-21T01:47:22.851Z,100.00
2022-08-21T01:48:26.134Z,100.00
2022-08-21T01:49:30.919Z,100.00
2022-08-21T01:50:34.350Z,100.00
2022-08-21T01:51:40.175Z,100.00
2022-08-21T01:52:43.569Z,100.00
2022-08-21T01:53:48.172Z,100.00
2022-08-21T01:54:55.456Z,100.00
2022-08-21T01:56:00.161Z,100.00
2022-08-21T01:57:05.659Z,100.00
2022-08-21T01:58:08.954Z,100.00
2022-08-21T01:59:13.531Z,100.00
2022-08-21T02:00:19.053Z,100.00
2022-08-21T02:01:23.460Z,100.00
2022-08-21T02:02:29.711Z,100.00
2022-08-21T02:03:36.144Z,100.00
2022-08-21T02:04:39.728Z,100.00
2022-08-21T02:05:45.260Z,100.00
2022-08-21T02:06:50.212Z,100.00
2022-08-21T02:07:55.966Z,100.00
2022-08-21T02:08:59.271Z,100.00
2022-08-21T02:10:03.578Z,100.00
2022-08-21T02:11:07.082Z,100.00
2022-08-21T02:12:12.472Z,100.00
2022-08-21T02:13:15.623Z,100.00
2022-08-21T02:14:32.080Z,100.00
2022-08-21T02:15:37.770Z,100.00
2022-08-21T02:16:41.625Z,100.00
2022-08-21T02:17:48.335Z,100.00
2022-08-21T02:18:51.712Z,100.00
2022-08-21T02:19:56.815Z,100.00
2022-08-21T02:21:00.042Z,100.00
2022-08-21T02:22:06.221Z,100.00
2022-08-21T02:23:12.016Z,100.00
2022-08-21T02:24:16.383Z,100.00
2022-08-21T02:25:20.774Z,100.00
2022-08-21T02:26:25.365Z,100.00
2022-08-21T02:27:49.873Z,100.00
2022-08-21T02:28:55.052Z,100.00
2022-08-21T02:29:59.093Z,100.00
2022-08-21T02:31:04.097Z,100.00
2022-08-21T02:32:07.715Z,100.00
2022-08-21T02:33:13.824Z,100.00
2022-08-21T02:34:17.237Z,100.00
2022-08-21T02:35:22.482Z,100.00
2022-08-21T02:36:25.718Z,100.00
2022-08-21T02:37:31.655Z,100.00
2022-08-21T02:38:39.125Z,100.00
2022-08-21T02:39:43.563Z,100.00
2022-08-21T02:40:51.134Z,100.00
2022-08-21T02:41:55.554Z,100.00
2022-08-21T02:42:59.349Z,100.00
2022-08-21T02:44:03.816Z,100.00
2022-08-21T02:45:08.339Z,100.00
2022-08-21T02:46:14.363Z,100.00
2022-08-21T02:47:17.707Z,100.00
2022-08-21T02:48:24.363Z,100.00
2022-08-21T02:49:28.717Z,100.00
2022-08-21T02:50:34.385Z,100.00
2022-08-21T02:51:38.856Z,100.00
2022-08-21T02:52:43.472Z,100.00
2022-08-21T02:53:49.234Z,100.00
2022-08-21T02:54:52.382Z,100.00
2022-08-21T02:55:58.523Z,100.00
2022-08-21T02:57:01.658Z,100.00
2022-08-21T02:58:07.249Z,100.00
2022-08-21T02:59:10.575Z,100.00
2022-08-21T03:00:15.368Z,100.00
2022-08-21T03:01:18.861Z,100.00
2022-08-21T03:02:23.393Z,100.00
2022-08-21T03:03:30.467Z,100.00
2022-08-21T03:04:34.782Z,100.00
2022-08-21T03:05:38.822Z,100.00
2022-08-21T03:06:43.280Z,100.00
2022-08-21T03:07:48.802Z,100.00
2022-08-21T03:08:53.304Z,100.00
2022-08-21T03:09:56.650Z,100.00
2022-08-21T03:11:02.143Z,100.00
2022-08-21T03:12:06.187Z,100.00
2022-08-21T03:13:11.018Z,100.00
2022-08-21T03:14:14.473Z,100.00
2022-08-21T03:15:24.781Z,100.00
2022-08-21T03:16:30.932Z,100.00
2022-08-21T03:17:37.643Z,100.00
2022-08-21T03:18:41.321Z,100.00
2022-08-21T03:19:45.824Z,100.00
2022-08-21T03:20:49.875Z,100.00
2022-08-21T03:21:54.205Z,100.00
2022-08-21T03:22:59.366Z,100.00
2022-08-21T03:24:04.475Z,100.00
2022-08-21T03:25:10.880Z,100.00
2022-08-21T03:26:16.716Z,100.00
2022-08-21T03:27:19.954Z,100.00
2022-08-21T03:28:26.988Z,100.00
2022-08-21T03:29:30.226Z,100.00
2022-08-21T03:30:34.534Z,100.00
2022-08-21T03:31:38.856Z,100.00
2022-08-21T03:32:42.352Z,100.00
2022-08-21T03:33:46.791Z,100.00
2022-08-21T03:34:50.124Z,100.00
2022-08-21T03:36:01.812Z,100.00
2022-08-21T03:37:07.194Z,100.00
2022-08-21T03:38:14.147Z,100.00
2022-08-21T03:39:18.844Z,100.00
2022-08-21T03:40:25.774Z,100.00
2022-08-21T03:41:30.039Z,100.00
2022-08-21T03:42:33.601Z,100.00
2022-08-21T03:43:39.747Z,100.00
2022-08-21T03:44:42.952Z,100.00
2022-08-21T03:45:47.542Z,100.00
2022-08-21T03:46:50.686Z,100.00
2022-08-21T03:47:56.984Z,100.00
2022-08-21T03:49:01.765Z,100.00
2022-08-21T03:50:05.894Z,100.00
2022-08-21T03:51:10.792Z,100.00
2022-08-21T03:52:14.463Z,100.00
2022-08-21T03:53:20.543Z,100.00
2022-08-21T03:54:24.093Z,100.00
2022-08-21T03:55:29.415Z,100.00
2022-08-21T03:56:33.002Z,100.00
2022-08-21T03:57:37.907Z,100.00
2022-08-21T03:58:41.422Z,100.00
2022-08-21T03:59:46.132Z,100.00
2022-08-21T04:04:01.279Z,100.00
2022-08-21T04:05:05.657Z,100.00
2022-08-21T04:06:11.651Z,100.00
2022-08-21T04:07:15.143Z,100.00
2022-08-21T04:08:21.090Z,100.00
2022-08-21T04:09:25.228Z,100.00
2022-08-21T04:10:31.244Z,100.00
2022-08-21T04:11:35.543Z,100.00
2022-08-21T04:12:39.021Z,100.00
2022-08-21T04:13:44.857Z,100.00
2022-08-21T04:14:48.667Z,100.00
2022-08-21T04:15:53.503Z,100.00
2022-08-21T04:16:56.809Z,100.00
2022-08-21T04:18:01.412Z,100.00
2022-08-21T04:19:04.919Z,100.00
2022-08-21T04:20:10.339Z,100.00
2022-08-21T04:21:14.793Z,100.00
2022-08-21T04:22:18.582Z,100.00
2022-08-21T04:23:25.128Z,100.00
2022-08-21T04:24:29.921Z,100.00
2022-08-21T04:25:34.537Z,100.00
2022-08-21T04:26:39.021Z,100.00
2022-08-21T04:27:43.481Z,100.00
2022-08-21T04:28:47.878Z,100.00
2022-08-21T04:29:51.082Z,100.00
2022-08-21T04:30:55.237Z,100.00
2022-08-21T04:31:58.646Z,100.00
2022-08-21T04:33:03.035Z,100.00
2022-08-21T04:34:06.514Z,100.00
2022-08-21T04:35:12.761Z,100.00
2022-08-21T04:36:17.076Z,100.00
2022-08-21T04:37:26.256Z,100.00
2022-08-21T04:38:36.687Z,100.00
2022-08-21T04:39:41.232Z,100.00
2022-08-21T04:40:45.870Z,100.00
2022-08-21T04:41:49.329Z,100.00
2022-08-21T04:42:55.696Z,100.00
2022-08-21T04:43:59.361Z,100.00
2022-08-21T04:45:04.092Z,100.00
2022-08-21T04:46:07.945Z,100.00
2022-08-21T04:47:18.904Z,100.00
2022-08-21T04:48:25.001Z,100.00
2022-08-21T04:49:29.692Z,100.00
2022-08-21T04:50:39.981Z,100.00
2022-08-21T04:51:44.551Z,100.00
2022-08-21T04:52:48.647Z,100.00
2022-08-21T04:53:57.901Z,100.00
2022-08-21T04:55:02.813Z,100.00
2022-08-21T04:56:10.692Z,100.00
2022-08-21T04:57:15.672Z,100.00
2022-08-21T04:58:22.156Z,100.00
2022-08-21T04:59:29.764Z,100.00
2022-08-21T05:00:34.313Z,100.00
2022-08-21T05:01:39.039Z,100.00
2022-08-21T05:02:44.264Z,100.00
2022-08-21T05:03:49.214Z,100.00
2022-08-21T05:04:55.143Z,100.00
2022-08-21T05:05:58.915Z,100.00
2022-08-21T05:07:07.284Z,100.00
2022-08-21T05:08:14.501Z,100.00
2022-08-21T05:09:21.404Z,100.00
2022-08-21T05:10:24.919Z,100.00
2022-08-21T05:11:29.991Z,100.00
2022-08-21T05:12:34.640Z,100.00
2022-08-21T05:13:41.893Z,100.00
2022-08-21T05:14:45.443Z,100.00
2022-08-21T05:15:49.885Z,100.00
2022-08-21T05:16:53.155Z,100.00
2022-08-21T05:18:00.739Z,100.00
2022-08-21T05:19:05.480Z,100.00
2022-08-21T05:20:11.184Z,100.00
2022-08-21T05:21:14.892Z,100.00
2022-08-21T05:22:22.690Z,100.00
2022-08-21T05:23:26.403Z,100.00
2022-08-21T05:24:32.502Z,100.00
2022-08-21T05:25:36.159Z,100.00
2022-08-21T05:26:45.474Z,100.00
2022-08-21T05:27:52.205Z,100.00
2022-08-21T05:28:57.332Z,100.00
2022-08-21T05:30:00.956Z,100.00
2022-08-21T05:31:05.915Z,100.00
2022-08-21T05:32:11.363Z,100.00
2022-08-21T05:33:16.067Z,100.00
2022-08-21T05:34:20.972Z,100.00
2022-08-21T05:35:26.236Z,100.00
2022-08-21T05:36:29.722Z,100.00
2022-08-21T05:37:34.793Z,100.00
2022-08-21T05:38:38.352Z,100.00
2022-08-21T05:40:21.167Z,100.00
2022-08-21T05:41:08.809Z,100.00
2022-08-21T05:42:13.522Z,100.00
2022-08-21T05:43:18.241Z,100.00
2022-08-21T05:44:21.714Z,100.00
2022-08-21T05:45:41.541Z,100.00
2022-08-21T05:46:47.055Z,100.00
2022-08-21T05:47:50.542Z,100.00
2022-08-21T05:49:20.025Z,100.00
2022-08-21T05:50:23.882Z,100.00
2022-08-21T05:51:34.551Z,100.00
2022-08-21T05:52:38.202Z,100.00
2022-08-21T05:53:43.715Z,100.00
2022-08-21T05:54:48.783Z,100.00
2022-08-21T05:56:02.504Z,100.00
2022-08-21T05:57:15.477Z,100.00
2022-08-21T05:58:20.838Z,100.00
2022-08-21T05:59:25.806Z,100.00
2022-08-21T06:00:29.118Z,100.00
2022-08-21T06:01:33.933Z,100.00
2022-08-21T06:02:37.340Z,100.00
2022-08-21T06:03:43.119Z,100.00
2022-08-21T06:04:46.922Z,100.00
2022-08-21T06:05:51.124Z,100.00
2022-08-21T06:06:54.404Z,100.00
2022-08-21T06:07:59.077Z,100.00
2022-08-21T06:09:02.980Z,100.00
2022-08-21T06:10:09.969Z,100.00
2022-08-21T06:11:13.288Z,100.00
2022-08-21T06:12:17.965Z,100.00
2022-08-21T06:13:22.042Z,100.00
2022-08-21T06:14:26.631Z,100.00
2022-08-21T06:15:33.123Z,100.00
2022-08-21T06:16:37.792Z,100.00
2022-08-21T06:17:41.255Z,100.00
2022-08-21T06:18:46.949Z,100.00
2022-08-21T06:19:53.073Z,100.00
2022-08-21T06:20:57.876Z,100.00
2022-08-21T06:22:04.595Z,100.00
2022-08-21T06:23:09.316Z,100.00
2022-08-21T06:24:12.980Z,100.00
2022-08-21T06:25:19.669Z,100.00
2022-08-21T06:26:23.474Z,100.00
2022-08-21T06:27:28.034Z,100.00
2022-08-21T06:28:31.555Z,100.00
2022-08-21T06:29:44.284Z,100.00
2022-08-21T06:30:47.868Z,99.75
2022-08-21T06:31:54.088Z,99.00
2022-08-21T06:32:57.964Z,98.67
2022-08-21T06:34:02.362Z,97.40
2022-08-21T06:35:06.713Z,97.56
2022-08-21T06:36:11.201Z,98.11
2022-08-21T06:37:14.472Z,99.02
2022-08-21T06:38:19.371Z,98.95
2022-08-21T06:39:30.585Z,98.20
2022-08-21T06:40:43.663Z,98.64
2022-08-21T06:41:50.163Z,98.86
2022-08-21T06:42:54.893Z,98.91
2022-08-21T06:43:59.950Z,98.99
2022-08-21T06:45:03.430Z,98.91
2022-08-21T06:46:08.283Z,98.59
2022-08-21T06:47:12.240Z,98.30
2022-08-21T06:48:19.317Z,98.50
2022-08-21T06:49:22.912Z,99.09
2022-08-21T06:50:27.512Z,99.54
2022-08-21T06:51:30.758Z,100.00
2022-08-21T06:52:35.112Z,100.00
2022-08-21T06:53:39.591Z,100.00
2022-08-21T06:54:42.915Z,100.00
2022-08-21T06:55:49.182Z,100.00
2022-08-21T06:56:52.751Z,100.00
2022-08-21T06:57:57.353Z,100.00
2022-08-21T06:59:02.218Z,100.00
2022-08-21T07:00:06.179Z,99.96
2022-08-21T07:01:10.403Z,99.72
2022-08-21T07:02:13.801Z,100.00
2022-08-21T07:03:25.750Z,99.96
2022-08-21T07:04:28.921Z,100.00
2022-08-21T07:05:33.551Z,100.00
2022-08-21T07:06:36.684Z,100.00
2022-08-21T07:07:40.934Z,99.41
2022-08-21T07:08:45.408Z,99.46
2022-08-21T07:09:48.532Z,100.00
2022-08-21T07:10:55.160Z,100.00
2022-08-21T07:11:58.442Z,99.97
2022-08-21T07:13:03.077Z,99.40
2022-08-21T07:14:06.671Z,99.09
2022-08-21T07:15:12.109Z,98.86
2022-08-21T07:16:16.235Z,98.53
2022-08-21T07:17:19.512Z,97.65
2022-08-21T07:18:23.622Z,97.29
2022-08-21T07:19:26.770Z,97.80
2022-08-21T07:20:31.439Z,97.72
2022-08-21T07:21:35.560Z,98.03
2022-08-21T07:22:39.995Z,98.58
2022-08-21T07:23:45.684Z,98.71
2022-08-21T07:24:48.811Z,98.86
2022-08-21T07:25:54.444Z,97.84
2022-08-21T07:26:57.589Z,97.26
2022-08-21T07:28:01.841Z,97.11
2022-08-21T07:29:05.509Z,97.31
2022-08-21T07:30:10.583Z,96.88
2022-08-21T07:31:15.754Z,97.10
2022-08-21T07:32:21.457Z,97.14
2022-08-21T07:33:25.873Z,97.36
2022-08-21T07:34:30.230Z,98.53
2022-08-21T07:35:34.530Z,99.15
2022-08-21T07:36:38.868Z,99.12
2022-08-21T07:37:42.443Z,99.08
2022-08-21T07:38:46.934Z,98.48
2022-08-21T07:39:50.284Z,98.33
2022-08-21T07:40:57.751Z,96.70
2022-08-21T07:42:03.920Z,94.44
2022-08-21T07:43:10.678Z,92.34
2022-08-21T07:44:13.782Z,91.92
2022-08-21T07:45:18.191Z,91.44
2022-08-21T07:46:21.511Z,92.20
2022-08-21T07:47:29.352Z,92.79
2022-08-21T07:48:46.131Z,93.65
2022-08-21T07:49:49.181Z,94.02
2022-08-21T07:50:53.623Z,95.10
2022-08-21T07:51:57.079Z,96.07
2022-08-21T07:53:01.347Z,96.57
2022-08-21T07:54:04.709Z,95.65
2022-08-21T07:55:10.278Z,95.53
2022-08-21T07:56:14.794Z,95.94
2022-08-21T07:57:18.985Z,96.35
2022-08-21T07:58:26.000Z,95.53
2022-08-21T07:59:29.520Z,95.23
2022-08-21T08:00:34.112Z,95.34
2022-08-21T08:01:37.335Z,95.84
2022-08-21T08:02:42.272Z,95.73
2022-08-21T08:03:46.323Z,95.34
2022-08-21T08:04:51.211Z,95.68
2022-08-21T08:05:54.518Z,95.80
2022-08-21T08:06:59.208Z,95.56
2022-08-21T08:08:02.476Z,95.53
2022-08-21T08:09:06.610Z,95.90
2022-08-21T08:10:11.632Z,95.59
2022-08-21T08:11:17.563Z,95.62
2022-08-21T08:12:21.463Z,95.59
2022-08-21T08:13:25.822Z,95.60
2022-08-21T08:14:31.488Z,95.94
2022-08-21T08:15:37.724Z,95.65
2022-08-21T08:16:40.813Z,95.11
2022-08-21T08:17:45.165Z,95.26
2022-08-21T08:18:49.290Z,95.65
2022-08-21T08:19:52.572Z,96.29
2022-08-21T08:20:56.680Z,96.69
2022-08-21T08:21:59.773Z,97.10
2022-08-21T08:23:04.202Z,96.83
2022-08-21T08:24:19.562Z,96.67
2022-08-21T08:25:25.179Z,97.52
2022-08-21T08:26:29.734Z,95.27
2022-08-21T08:27:33.989Z,95.21
2022-08-21T08:28:37.069Z,94.84
2022-08-21T08:29:41.272Z,95.04
2022-08-21T08:30:44.306Z,95.76
2022-08-21T08:31:48.357Z,95.46
2022-08-21T08:32:51.543Z,95.73
2022-08-21T08:33:55.656Z,95.31
2022-08-21T08:34:58.733Z,93.65
2022-08-21T08:36:07.992Z,93.88
2022-08-21T08:37:12.192Z,93.52
2022-08-21T08:38:20.919Z,92.92
2022-08-21T08:39:29.676Z,92.85
2022-08-21T08:40:38.764Z,92.31
2022-08-21T08:41:48.423Z,92.03
2022-08-21T08:43:02.372Z,93.40
2022-08-21T08:44:08.453Z,93.31
2022-08-21T08:45:14.916Z,92.94
2022-08-21T08:46:21.224Z,93.11
2022-08-21T08:47:27.590Z,91.82
2022-08-21T08:48:40.919Z,92.15
2022-08-21T08:49:52.664Z,91.88
2022-08-21T08:50:58.354Z,91.46
2022-08-21T08:52:05.202Z,91.34
2022-08-21T08:53:13.611Z,90.75
2022-08-21T08:56:09.688Z,91.98
2022-08-21T08:57:22.512Z,91.21
2022-08-21T08:58:31.476Z,90.89
2022-08-21T08:59:41.105Z,90.27
2022-08-21T09:00:49.444Z,90.03
2022-08-21T09:01:53.718Z,90.26
2022-08-21T09:03:01.096Z,89.40
2022-08-21T09:04:05.891Z,88.92
2022-08-21T09:05:09.833Z,87.39
2022-08-21T09:06:25.559Z,86.25
2022-08-21T09:07:40.272Z,86.20
2022-08-21T09:08:50.822Z,86.47
2022-08-21T09:10:06.515Z,86.87
2022-08-21T09:11:15.077Z,86.23
2022-08-21T09:12:34.201Z,88.06
2022-08-21T09:13:52.668Z,87.66
2022-08-21T09:15:05.690Z,86.34
2022-08-21T09:16:15.464Z,85.39
2022-08-21T09:17:32.560Z,85.51
2022-08-21T09:18:45.522Z,86.85
2022-08-21T09:19:59.363Z,87.42
2022-08-21T09:21:12.252Z,85.98
2022-08-21T09:22:21.034Z,84.49
2022-08-21T09:23:33.879Z,86.72
2022-08-21T09:24:46.935Z,86.76
2022-08-21T09:25:58.875Z,86.87
2022-08-21T09:27:09.489Z,85.93
2022-08-21T09:28:15.925Z,86.06
2022-08-21T09:29:25.562Z,85.59
2022-08-21T09:30:34.824Z,84.79
2022-08-21T09:31:38.729Z,83.33
2022-08-21T09:32:43.181Z,83.55
2022-08-21T09:33:46.213Z,82.99
2022-08-21T09:35:02.255Z,82.70
2022-08-21T09:36:07.023Z,80.00
2022-08-21T09:37:19.063Z,81.60
2022-08-21T09:38:29.891Z,79.05
2022-08-21T09:39:40.251Z,77.30
2022-08-21T09:40:48.183Z,76.09
2022-08-21T09:41:58.081Z,74.00
2022-08-21T09:43:04.652Z,74.20
2022-08-21T09:44:11.180Z,73.45
2022-08-21T09:45:18.403Z,74.00
2022-08-21T09:46:25.201Z,73.00
2022-08-21T09:47:28.660Z,72.64
2022-08-21T09:48:40.579Z,72.24
2022-08-21T09:49:44.801Z,72.62
2022-08-21T09:50:50.441Z,72.23
2022-08-21T09:51:55.311Z,72.23
2022-08-21T09:53:01.306Z,71.30
2022-08-21T09:54:15.622Z,71.30
2022-08-21T09:55:41.804Z,71.19
2022-08-21T09:57:13.153Z,70.78
2022-08-21T09:58:17.681Z,70.76
2022-08-21T09:59:30.841Z,71.21
2022-08-21T10:00:38.175Z,71.06
2022-08-21T10:01:45.494Z,70.28
2022-08-21T10:02:49.681Z,70.28
2022-08-21T10:04:04.691Z,70.03
2022-08-21T10:05:12.249Z,70.03
2022-08-21T10:06:24.592Z,70.37
2022-08-21T10:07:30.764Z,70.27
2022-08-21T10:08:35.990Z,70.21
2022-08-21T10:09:40.190Z,69.65
2022-08-21T10:10:43.300Z,69.46
2022-08-21T10:11:54.137Z,68.90
2022-08-21T10:13:02.325Z,67.95
2022-08-21T10:14:15.520Z,67.29
2022-08-21T10:15:25.943Z,67.11
2022-08-21T10:16:34.348Z,66.96
2022-08-21T10:17:43.541Z,66.45
2022-08-21T10:18:54.390Z,66.32
2022-08-21T10:20:02.585Z,66.21
2022-08-21T10:21:12.453Z,66.50
2022-08-21T10:22:25.383Z,66.15
2022-08-21T10:23:41.020Z,66.33
2022-08-21T10:24:52.460Z,66.90
2022-08-21T10:26:13.333Z,66.47
2022-08-21T10:27:25.332Z,66.43
2022-08-21T10:28:34.601Z,65.65
2022-08-21T10:29:50.540Z,65.78
2022-08-21T10:30:59.476Z,66.43
2022-08-21T10:32:15.682Z,66.77
2022-08-21T10:33:38.662Z,67.51
2022-08-21T10:34:49.904Z,67.24
2022-08-21T10:35:59.573Z,67.60
2022-08-21T10:37:12.790Z,67.67
2022-08-21T10:39:02.697Z,66.76
2022-08-21T10:40:19.843Z,67.67
2022-08-21T10:41:30.749Z,67.45
2022-08-21T10:42:39.582Z,67.28
2022-08-21T10:43:50.968Z,67.67
2022-08-21T10:45:03.604Z,67.43
2022-08-21T10:46:14.819Z,67.77
2022-08-21T10:47:21.401Z,68.08
2022-08-21T10:48:31.316Z,67.67
2022-08-21T10:49:42.266Z,67.35
2022-08-21T10:50:49.892Z,68.17
2022-08-21T10:51:58.930Z,68.06
2022-08-21T10:53:16.944Z,68.38
2022-08-21T10:54:28.851Z,68.42
2022-08-21T10:55:36.214Z,68.37
2022-08-21T10:56:44.081Z,68.18
2022-08-21T10:57:49.581Z,68.34
2022-08-21T10:59:04.410Z,68.94
2022-08-21T11:00:10.833Z,68.67
2022-08-21T11:01:21.199Z,68.66
2022-08-21T11:02:29.212Z,68.56
2022-08-21T11:03:36.791Z,68.68
2022-08-21T11:04:50.225Z,69.11
2022-08-21T11:05:56.984Z,69.17
2022-08-21T11:07:04.586Z,68.71
2022-08-21T11:08:15.514Z,68.75
2022-08-21T11:09:22.299Z,68.74
2022-08-21T11:10:29.354Z,68.70
2022-08-21T11:11:37.049Z,68.98
2022-08-21T11:12:44.136Z,68.87
2022-08-21T11:13:51.130Z,69.05
2022-08-21T11:14:59.476Z,69.36
2022-08-21T11:16:07.311Z,68.65
2022-08-21T11:17:17.231Z,68.29
2022-08-21T11:18:26.800Z,68.71
2022-08-21T11:19:34.034Z,68.39
2022-08-21T11:20:44.205Z,68.16
2022-08-21T11:21:53.755Z,68.30
2022-08-21T11:23:03.676Z,68.47
2022-08-21T11:24:28.951Z,68.41
2022-08-21T11:25:37.173Z,68.25
2022-08-21T11:26:44.566Z,68.55
2022-08-21T11:27:52.630Z,68.22
2022-08-21T11:29:01.195Z,68.46
2022-08-21T11:30:06.035Z,68.29
2022-08-21T11:31:18.213Z,68.42
2022-08-21T11:32:58.366Z,68.37
2022-08-21T11:34:11.813Z,68.41
2022-08-21T11:35:28.769Z,67.41
2022-08-21T11:36:38.084Z,67.54
2022-08-21T11:37:57.669Z,67.34
2022-08-21T11:39:09.140Z,66.36
2022-08-21T11:40:23.735Z,65.81
2022-08-21T11:41:31.909Z,65.21
2022-08-21T11:42:42.530Z,64.33
2022-08-21T11:43:52.199Z,63.83
2022-08-21T11:45:13.798Z,63.43
2022-08-21T11:46:31.449Z,62.85
2022-08-21T11:47:55.011Z,60.25
2022-08-21T11:49:08.390Z,60.21
2022-08-21T11:50:34.168Z,60.49
2022-08-21T11:51:44.258Z,59.77
2022-08-21T11:52:52.679Z,58.99
2022-08-21T11:54:07.839Z,58.07
2022-08-21T11:55:16.911Z,58.39
2022-08-21T11:56:28.568Z,57.59
2022-08-21T11:57:35.483Z,59.42
2022-08-21T11:58:41.638Z,59.58
2022-08-21T11:59:51.561Z,60.07
2022-08-21T12:00:59.178Z,60.92
2022-08-21T12:02:03.682Z,60.49
2022-08-21T12:03:16.401Z,59.95
2022-08-21T12:04:27.652Z,60.16
2022-08-21T12:05:37.399Z,60.81
2022-08-21T12:06:42.306Z,60.21
2022-08-21T12:07:47.410Z,60.28
2022-08-21T12:09:00.126Z,60.21
2022-08-21T12:10:07.266Z,60.52
2022-08-21T12:11:12.160Z,59.96
2022-08-21T12:12:27.159Z,60.18
2022-08-21T12:13:40.046Z,60.03
2022-08-21T12:14:46.969Z,60.35
2022-08-21T12:15:51.640Z,60.17
2022-08-21T12:17:06.353Z,59.48
2022-08-21T12:18:26.181Z,59.78
2022-08-21T12:19:33.968Z,60.28
2022-08-21T12:20:50.784Z,60.57
2022-08-21T12:21:57.489Z,60.50
2022-08-21T12:23:07.353Z,60.74
2022-08-21T12:24:22.735Z,61.28
2022-08-21T12:25:38.771Z,61.12
2022-08-21T12:26:52.982Z,61.31
2022-08-21T12:28:08.879Z,61.70
2022-08-21T12:29:19.210Z,61.98
2022-08-21T12:30:34.529Z,62.62
2022-08-21T12:31:38.661Z,62.24
2022-08-21T12:32:46.593Z,62.56
2022-08-21T12:34:04.694Z,63.02
2022-08-21T12:35:15.548Z,63.24
2022-08-21T12:36:34.811Z,63.78
2022-08-21T12:37:44.680Z,64.07
2022-08-21T12:38:50.787Z,64.71
2022-08-21T12:40:01.753Z,64.48
2022-08-21T12:41:08.301Z,64.67
2022-08-21T12:42:18.908Z,64.81
2022-08-21T12:43:24.367Z,64.97
2022-08-21T12:44:35.983Z,65.51
2022-08-21T12:45:43.501Z,65.64
2022-08-21T12:46:51.045Z,66.04
2022-08-21T12:47:59.972Z,65.84
2022-08-21T12:49:10.134Z,66.12
2022-08-21T12:50:17.958Z,66.52
2022-08-21T12:51:26.189Z,66.70
2022-08-21T12:52:38.989Z,67.03
2022-08-21T12:53:46.143Z,67.28
2022-08-21T12:54:50.591Z,67.36
2022-08-21T12:55:53.847Z,67.43
2022-08-21T12:57:02.569Z,67.61
2022-08-21T12:58:06.868Z,67.41
2022-08-21T12:59:14.892Z,67.17
2022-08-21T13:00:23.651Z,66.92
2022-08-21T13:01:31.966Z,66.53
2022-08-21T13:02:38.349Z,66.71
2022-08-21T13:03:43.632Z,66.89
2022-08-21T13:04:48.999Z,66.72
2022-08-21T13:05:54.957Z,67.23
2022-08-21T13:07:00.628Z,67.58
2022-08-21T13:08:07.116Z,67.47
2022-08-21T13:09:16.139Z,67.41
2022-08-21T13:10:23.778Z,67.61
2022-08-21T13:11:32.612Z,67.73
2022-08-21T13:12:38.280Z,67.96
2022-08-21T13:13:46.856Z,67.78
2022-08-21T13:14:54.472Z,67.86
2022-08-21T13:16:01.871Z,68.04
2022-08-21T13:17:08.079Z,68.52
2022-08-21T13:18:23.691Z,69.05
2022-08-21T13:19:27.734Z,69.33
2022-08-21T13:20:35.562Z,69.51
2022-08-21T13:21:41.921Z,69.58
2022-08-21T13:22:46.809Z,69.90
2022-08-21T13:23:49.810Z,70.12
2022-08-21T13:24:55.049Z,70.43
2022-08-21T13:25:58.890Z,70.95
2022-08-21T13:27:03.492Z,71.22
2022-08-21T13:28:10.145Z,71.68
2022-08-21T13:29:24.275Z,72.18
2022-08-21T13:30:28.642Z,72.26
2022-08-21T13:31:32.775Z,72.54
2022-08-21T13:32:39.491Z,72.72
2022-08-21T13:33:43.102Z,72.63
2022-08-21T13:34:47.252Z,72.39
2022-08-21T13:36:06.349Z,72.36
2022-08-21T13:37:10.380Z,71.89
2022-08-21T13:38:14.526Z,71.91
2022-08-21T13:39:19.251Z,71.07
2022-08-21T13:40:28.439Z,70.77
2022-08-21T13:41:34.301Z,70.73
2022-08-21T13:42:38.478Z,70.57
2022-08-21T13:43:46.810Z,70.96
2022-08-21T13:44:51.171Z,71.05
2022-08-21T13:45:56.113Z,70.62
2022-08-21T13:47:02.059Z,70.59
2022-08-21T13:48:06.946Z,70.92
2022-08-21T13:49:12.279Z,70.66
2022-08-21T13:50:16.986Z,70.96
2022-08-21T13:51:22.909Z,71.15
2022-08-21T13:52:27.425Z,71.64
2022-08-21T13:53:33.721Z,71.68
2022-08-21T13:54:39.432Z,71.76
2022-08-21T13:55:46.045Z,71.69
2022-08-21T13:56:49.240Z,72.15
2022-08-21T13:58:02.144Z,72.38
2022-08-21T13:59:05.319Z,72.24
2022-08-21T14:00:15.959Z,72.32
2022-08-21T14:01:22.024Z,72.60
2022-08-21T14:02:26.827Z,72.67
2022-08-21T14:03:34.838Z,72.97
2022-08-21T14:04:44.384Z,73.12
2022-08-21T14:05:57.391Z,73.20
2022-08-21T14:07:16.824Z,73.51
2022-08-21T14:08:30.157Z,73.18
2022-08-21T14:09:37.268Z,73.24
2022-08-21T14:10:44.209Z,73.18
2022-08-21T14:11:48.370Z,73.25
2022-08-21T14:12:53.580Z,73.47
2022-08-21T14:14:01.475Z,73.56
2022-08-21T14:15:06.471Z,73.69
2022-08-21T14:16:17.817Z,73.75